sensor_id;sensor_type;location;lat;lon;timestamp;temperature;humidity
70300;HTU21D;57704;51.112;5.878;2022-11-02T00:00:29;15.88;59.86
70300;HTU21D;57704;51.112;5.878;2022-11-02T00:02:55;15.84;60.00
70300;HTU21D;57704;51.112;5.878;2022-11-02T00:05:21;15.82;60.34
70300;HTU21D;57704;51.112;5.878;2022-11-02T00:07:54;15.78;60.46
70300;HTU21D;57704;51.112;5.878;2022-11-02T00:10:21;15.73;60.63
70300;HTU21D;57704;51.112;5.878;2022-11-02T00:12:49;15.67;60.73
70300;HTU21D;57704;51.112;5.878;2022-11-02T00:15:16;15.66;60.82
70300;HTU21D;57704;51.112;5.878;2022-11-02T00:17:46;15.61;61.00
70300;HTU21D;57704;51.112;5.878;2022-11-02T00:20:15;15.57;61.34
70300;HTU21D;57704;51.112;5.878;2022-11-02T00:22:44;15.51;61.58
70300;HTU21D;57704;51.112;5.878;2022-11-02T00:25:14;15.49;61.55
70300;HTU21D;57704;51.112;5.878;2022-11-02T00:27:41;15.45;61.77
70300;HTU21D;57704;51.112;5.878;2022-11-02T00:30:08;15.42;62.32
70300;HTU21D;57704;51.112;5.878;2022-11-02T00:32:35;15.38;62.46
70300;HTU21D;57704;51.112;5.878;2022-11-02T00:35:01;15.37;62.21
70300;HTU21D;57704;51.112;5.878;2022-11-02T00:37:27;15.36;62.30
70300;HTU21D;57704;51.112;5.878;2022-11-02T00:39:53;15.32;62.44
70300;HTU21D;57704;51.112;5.878;2022-11-02T00:42:19;15.31;62.38
70300;HTU21D;57704;51.112;5.878;2022-11-02T00:44:45;15.28;62.53
70300;HTU21D;57704;51.112;5.878;2022-11-02T00:47:11;15.26;62.66
70300;HTU21D;57704;51.112;5.878;2022-11-02T00:49:37;15.19;62.89
70300;HTU21D;57704;51.112;5.878;2022-11-02T00:52:05;15.18;63.13
70300;HTU21D;57704;51.112;5.878;2022-11-02T00:54:31;15.27;63.34
70300;HTU21D;57704;51.112;5.878;2022-11-02T00:56:58;15.31;62.95
70300;HTU21D;57704;51.112;5.878;2022-11-02T00:59:24;15.32;63.41
70300;HTU21D;57704;51.112;5.878;2022-11-02T01:01:50;15.38;63.07
70300;HTU21D;57704;51.112;5.878;2022-11-02T01:04:16;15.36;63.04
70300;HTU21D;57704;51.112;5.878;2022-11-02T01:06:44;15.38;63.01
70300;HTU21D;57704;51.112;5.878;2022-11-02T01:09:13;15.38;62.91
70300;HTU21D;57704;51.112;5.878;2022-11-02T01:11:39;15.40;63.04
70300;HTU21D;57704;51.112;5.878;2022-11-02T01:14:06;15.38;62.87
70300;HTU21D;57704;51.112;5.878;2022-11-02T01:16:32;15.38;62.98
70300;HTU21D;57704;51.112;5.878;2022-11-02T01:18:59;15.38;62.84
70300;HTU21D;57704;51.112;5.878;2022-11-02T01:21:26;15.36;62.95
70300;HTU21D;57704;51.112;5.878;2022-11-02T01:23:52;15.36;62.97
70300;HTU21D;57704;51.112;5.878;2022-11-02T01:26:20;15.32;63.02
70300;HTU21D;57704;51.112;5.878;2022-11-02T01:28:46;15.30;63.15
70300;HTU21D;57704;51.112;5.878;2022-11-02T01:31:13;15.26;63.25
70300;HTU21D;57704;51.112;5.878;2022-11-02T01:33:43;15.27;63.28
70300;HTU21D;57704;51.112;5.878;2022-11-02T01:36:11;15.24;63.73
70300;HTU21D;57704;51.112;5.878;2022-11-02T01:38:38;15.19;63.48
70300;HTU21D;57704;51.112;5.878;2022-11-02T01:41:04;15.19;63.60
70300;HTU21D;57704;51.112;5.878;2022-11-02T01:43:35;15.18;63.76
70300;HTU21D;57704;51.112;5.878;2022-11-02T01:49:11;15.22;63.80
70300;HTU21D;57704;51.112;5.878;2022-11-02T01:51:54;15.27;63.72
70300;HTU21D;57704;51.112;5.878;2022-11-02T01:54:26;15.30;63.90
70300;HTU21D;57704;51.112;5.878;2022-11-02T01:56:59;15.33;63.98
70300;HTU21D;57704;51.112;5.878;2022-11-02T01:59:31;15.38;63.58
70300;HTU21D;57704;51.112;5.878;2022-11-02T02:01:58;15.33;63.57
70300;HTU21D;57704;51.112;5.878;2022-11-02T02:04:25;15.32;63.62
70300;HTU21D;57704;51.112;5.878;2022-11-02T02:06:57;15.30;63.58
70300;HTU21D;57704;51.112;5.878;2022-11-02T02:09:24;15.23;63.72
70300;HTU21D;57704;51.112;5.878;2022-11-02T02:11:51;15.21;63.83
70300;HTU21D;57704;51.112;5.878;2022-11-02T02:14:19;15.19;64.18
70300;HTU21D;57704;51.112;5.878;2022-11-02T02:20:03;15.06;64.20
70300;HTU21D;57704;51.112;5.878;2022-11-02T02:28:15;14.94;64.79
70300;HTU21D;57704;51.112;5.878;2022-11-02T02:33:56;14.86;64.57
70300;HTU21D;57704;51.112;5.878;2022-11-02T02:47:30;14.74;64.41
70300;HTU21D;57704;51.112;5.878;2022-11-02T02:50:13;14.72;64.30
70300;HTU21D;57704;51.112;5.878;2022-11-02T02:52:41;14.73;64.21
70300;HTU21D;57704;51.112;5.878;2022-11-02T02:55:16;14.69;64.42
70300;HTU21D;57704;51.112;5.878;2022-11-02T02:57:44;14.67;64.14
70300;HTU21D;57704;51.112;5.878;2022-11-02T03:00:14;14.68;63.88
70300;HTU21D;57704;51.112;5.878;2022-11-02T03:02:44;14.65;63.88
70300;HTU21D;57704;51.112;5.878;2022-11-02T03:08:03;14.63;63.69
70300;HTU21D;57704;51.112;5.878;2022-11-02T03:10:35;14.57;63.51
70300;HTU21D;57704;51.112;5.878;2022-11-02T03:13:52;14.58;63.28
70300;HTU21D;57704;51.112;5.878;2022-11-02T03:21:54;14.52;63.62
70300;HTU21D;57704;51.112;5.878;2022-11-02T03:24:48;14.54;63.76
70300;HTU21D;57704;51.112;5.878;2022-11-02T03:27:24;14.53;64.05
70300;HTU21D;57704;51.112;5.878;2022-11-02T03:30:14;14.49;64.30
70300;HTU21D;57704;51.112;5.878;2022-11-02T03:35:53;14.40;65.00
70300;HTU21D;57704;51.112;5.878;2022-11-02T03:38:36;14.37;65.31
70300;HTU21D;57704;51.112;5.878;2022-11-02T03:41:07;14.37;65.39
70300;HTU21D;57704;51.112;5.878;2022-11-02T03:43:35;14.34;66.67
70300;HTU21D;57704;51.112;5.878;2022-11-02T03:46:06;14.37;65.66
70300;HTU21D;57704;51.112;5.878;2022-11-02T03:48:39;14.34;65.60
70300;HTU21D;57704;51.112;5.878;2022-11-02T03:51:11;14.33;65.66
70300;HTU21D;57704;51.112;5.878;2022-11-02T03:53:48;14.30;65.73
70300;HTU21D;57704;51.112;5.878;2022-11-02T03:56:35;14.28;65.80
70300;HTU21D;57704;51.112;5.878;2022-11-02T03:59:02;14.29;65.90
70300;HTU21D;57704;51.112;5.878;2022-11-02T04:01:36;14.25;65.88
70300;HTU21D;57704;51.112;5.878;2022-11-02T04:04:04;14.25;66.05
70300;HTU21D;57704;51.112;5.878;2022-11-02T04:06:33;14.21;66.01
70300;HTU21D;57704;51.112;5.878;2022-11-02T04:08:59;14.18;66.40
70300;HTU21D;57704;51.112;5.878;2022-11-02T04:11:27;14.15;66.23
70300;HTU21D;57704;51.112;5.878;2022-11-02T04:14:13;14.13;66.31
70300;HTU21D;57704;51.112;5.878;2022-11-02T04:16:59;14.12;66.01
70300;HTU21D;57704;51.112;5.878;2022-11-02T04:19:46;14.10;66.20
70300;HTU21D;57704;51.112;5.878;2022-11-02T04:22:13;14.06;66.21
70300;HTU21D;57704;51.112;5.878;2022-11-02T04:25:06;14.09;66.04
70300;HTU21D;57704;51.112;5.878;2022-11-02T04:28:15;14.07;66.26
70300;HTU21D;57704;51.112;5.878;2022-11-02T04:30:52;14.06;65.93
70300;HTU21D;57704;51.112;5.878;2022-11-02T04:33:21;14.04;65.91
70300;HTU21D;57704;51.112;5.878;2022-11-02T04:36:10;14.03;66.20
70300;HTU21D;57704;51.112;5.878;2022-11-02T04:38:38;14.01;65.86
70300;HTU21D;57704;51.112;5.878;2022-11-02T04:41:20;13.99;65.88
70300;HTU21D;57704;51.112;5.878;2022-11-02T04:44:10;13.97;66.04
70300;HTU21D;57704;51.112;5.878;2022-11-02T04:46:40;13.94;65.94
70300;HTU21D;57704;51.112;5.878;2022-11-02T04:49:09;13.93;65.92
70300;HTU21D;57704;51.112;5.878;2022-11-02T04:51:37;13.90;66.11
70300;HTU21D;57704;51.112;5.878;2022-11-02T04:54:05;13.92;65.88
70300;HTU21D;57704;51.112;5.878;2022-11-02T04:56:32;13.91;66.10
70300;HTU21D;57704;51.112;5.878;2022-11-02T04:59:00;13.92;65.82
70300;HTU21D;57704;51.112;5.878;2022-11-02T05:01:29;13.89;65.85
70300;HTU21D;57704;51.112;5.878;2022-11-02T05:03:57;13.88;65.88
70300;HTU21D;57704;51.112;5.878;2022-11-02T05:06:25;13.81;65.98
70300;HTU21D;57704;51.112;5.878;2022-11-02T05:08:53;13.82;66.04
70300;HTU21D;57704;51.112;5.878;2022-11-02T05:11:20;13.79;66.24
70300;HTU21D;57704;51.112;5.878;2022-11-02T05:13:48;13.78;66.14
70300;HTU21D;57704;51.112;5.878;2022-11-02T05:16:16;13.76;66.06
70300;HTU21D;57704;51.112;5.878;2022-11-02T05:18:43;13.78;66.07
70300;HTU21D;57704;51.112;5.878;2022-11-02T05:21:11;13.78;66.00
70300;HTU21D;57704;51.112;5.878;2022-11-02T05:23:37;13.76;65.95
70300;HTU21D;57704;51.112;5.878;2022-11-02T05:26:08;13.75;66.06
70300;HTU21D;57704;51.112;5.878;2022-11-02T05:28:35;13.75;66.03
70300;HTU21D;57704;51.112;5.878;2022-11-02T05:31:04;13.69;66.17
70300;HTU21D;57704;51.112;5.878;2022-11-02T05:33:32;13.70;66.00
70300;HTU21D;57704;51.112;5.878;2022-11-02T05:36:04;13.70;65.98
70300;HTU21D;57704;51.112;5.878;2022-11-02T05:38:32;13.68;65.95
70300;HTU21D;57704;51.112;5.878;2022-11-02T05:40:59;13.69;65.98
70300;HTU21D;57704;51.112;5.878;2022-11-02T05:43:29;13.67;66.02
70300;HTU21D;57704;51.112;5.878;2022-11-02T05:45:57;13.64;66.04
70300;HTU21D;57704;51.112;5.878;2022-11-02T05:48:25;13.64;66.17
70300;HTU21D;57704;51.112;5.878;2022-11-02T05:50:59;13.62;66.24
70300;HTU21D;57704;51.112;5.878;2022-11-02T05:53:27;13.62;66.21
70300;HTU21D;57704;51.112;5.878;2022-11-02T05:55:57;13.62;66.36
70300;HTU21D;57704;51.112;5.878;2022-11-02T05:58:24;13.59;66.31
70300;HTU21D;57704;51.112;5.878;2022-11-02T06:00:50;13.55;66.75
70300;HTU21D;57704;51.112;5.878;2022-11-02T06:03:16;13.56;66.48
70300;HTU21D;57704;51.112;5.878;2022-11-02T06:05:43;13.55;66.43
70300;HTU21D;57704;51.112;5.878;2022-11-02T06:08:09;13.51;66.85
70300;HTU21D;57704;51.112;5.878;2022-11-02T06:10:35;13.53;66.50
70300;HTU21D;57704;51.112;5.878;2022-11-02T06:13:02;13.53;66.73
70300;HTU21D;57704;51.112;5.878;2022-11-02T06:15:30;13.54;66.59
70300;HTU21D;57704;51.112;5.878;2022-11-02T06:17:57;13.58;66.49
70300;HTU21D;57704;51.112;5.878;2022-11-02T06:20:23;13.53;66.62
70300;HTU21D;57704;51.112;5.878;2022-11-02T06:22:49;13.52;66.70
70300;HTU21D;57704;51.112;5.878;2022-11-02T06:25:16;13.53;66.59
70300;HTU21D;57704;51.112;5.878;2022-11-02T06:27:50;13.50;66.74
70300;HTU21D;57704;51.112;5.878;2022-11-02T06:30:17;13.45;66.85
70300;HTU21D;57704;51.112;5.878;2022-11-02T06:32:48;13.46;66.73
70300;HTU21D;57704;51.112;5.878;2022-11-02T06:35:15;13.43;66.82
70300;HTU21D;57704;51.112;5.878;2022-11-02T06:37:43;13.46;66.64
70300;HTU21D;57704;51.112;5.878;2022-11-02T06:40:10;13.45;66.98
70300;HTU21D;57704;51.112;5.878;2022-11-02T06:42:37;13.45;66.69
70300;HTU21D;57704;51.112;5.878;2022-11-02T06:45:04;13.47;66.62
70300;HTU21D;57704;51.112;5.878;2022-11-02T06:47:33;13.46;66.64
70300;HTU21D;57704;51.112;5.878;2022-11-02T06:50:00;13.44;66.88
70300;HTU21D;57704;51.112;5.878;2022-11-02T06:52:27;13.46;66.65
70300;HTU21D;57704;51.112;5.878;2022-11-02T06:54:54;13.43;66.79
70300;HTU21D;57704;51.112;5.878;2022-11-02T06:57:20;13.46;66.78
70300;HTU21D;57704;51.112;5.878;2022-11-02T06:59:46;13.49;66.69
70300;HTU21D;57704;51.112;5.878;2022-11-02T07:02:13;13.55;66.52
70300;HTU21D;57704;51.112;5.878;2022-11-02T07:04:39;13.56;66.56
70300;HTU21D;57704;51.112;5.878;2022-11-02T07:07:05;13.60;66.36
70300;HTU21D;57704;51.112;5.878;2022-11-02T07:09:31;13.64;66.33
70300;HTU21D;57704;51.112;5.878;2022-11-02T07:11:57;13.75;66.49
70300;HTU21D;57704;51.112;5.878;2022-11-02T07:14:23;14.06;66.39
70300;HTU21D;57704;51.112;5.878;2022-11-02T07:16:49;14.51;65.56
70300;HTU21D;57704;51.112;5.878;2022-11-02T07:19:15;15.18;64.24
70300;HTU21D;57704;51.112;5.878;2022-11-02T07:21:42;15.92;60.95
70300;HTU21D;57704;51.112;5.878;2022-11-02T07:24:08;16.67;60.90
70300;HTU21D;57704;51.112;5.878;2022-11-02T07:26:34;17.26;57.64
70300;HTU21D;57704;51.112;5.878;2022-11-02T07:29:00;17.72;57.77
70300;HTU21D;57704;51.112;5.878;2022-11-02T07:31:26;18.22;54.99
70300;HTU21D;57704;51.112;5.878;2022-11-02T07:33:52;18.64;55.23
70300;HTU21D;57704;51.112;5.878;2022-11-02T07:36:18;19.03;52.53
70300;HTU21D;57704;51.112;5.878;2022-11-02T07:38:44;19.12;53.36
70300;HTU21D;57704;51.112;5.878;2022-11-02T07:41:11;19.50;52.23
70300;HTU21D;57704;51.112;5.878;2022-11-02T07:43:37;19.83;50.17
70300;HTU21D;57704;51.112;5.878;2022-11-02T07:46:35;20.28;47.70
70300;HTU21D;57704;51.112;5.878;2022-11-02T07:49:01;20.32;46.37
70300;HTU21D;57704;51.112;5.878;2022-11-02T07:51:28;20.26;48.88
70300;HTU21D;57704;51.112;5.878;2022-11-02T07:53:54;20.17;49.19
70300;HTU21D;57704;51.112;5.878;2022-11-02T07:56:20;20.51;50.25
70300;HTU21D;57704;51.112;5.878;2022-11-02T07:58:46;21.22;47.99
70300;HTU21D;57704;51.112;5.878;2022-11-02T08:01:12;21.66;47.54
70300;HTU21D;57704;51.112;5.878;2022-11-02T08:03:38;21.93;45.39
70300;HTU21D;57704;51.112;5.878;2022-11-02T08:06:04;21.97;45.96
70300;HTU21D;57704;51.112;5.878;2022-11-02T08:08:31;21.89;45.35
70300;HTU21D;57704;51.112;5.878;2022-11-02T08:11:05;22.18;45.26
70300;HTU21D;57704;51.112;5.878;2022-11-02T08:13:32;22.18;44.54
70300;HTU21D;57704;51.112;5.878;2022-11-02T08:15:59;22.08;44.20
70300;HTU21D;57704;51.112;5.878;2022-11-02T08:18:27;22.14;44.96
70300;HTU21D;57704;51.112;5.878;2022-11-02T08:20:55;22.43;44.06
70300;HTU21D;57704;51.112;5.878;2022-11-02T08:23:23;22.57;43.51
70300;HTU21D;57704;51.112;5.878;2022-11-02T08:25:51;22.78;43.32
70300;HTU21D;57704;51.112;5.878;2022-11-02T08:28:26;22.75;41.12
70300;HTU21D;57704;51.112;5.878;2022-11-02T08:30:53;22.52;43.48
70300;HTU21D;57704;51.112;5.878;2022-11-02T08:33:20;22.92;43.16
70300;HTU21D;57704;51.112;5.878;2022-11-02T08:35:47;23.09;42.74
70300;HTU21D;57704;51.112;5.878;2022-11-02T08:38:14;23.16;41.21
70300;HTU21D;57704;51.112;5.878;2022-11-02T08:40:41;23.06;41.11
70300;HTU21D;57704;51.112;5.878;2022-11-02T08:43:10;22.80;41.78
70300;HTU21D;57704;51.112;5.878;2022-11-02T08:45:39;22.71;42.60
70300;HTU21D;57704;51.112;5.878;2022-11-02T08:48:07;22.75;42.07
70300;HTU21D;57704;51.112;5.878;2022-11-02T08:50:33;22.93;42.29
70300;HTU21D;57704;51.112;5.878;2022-11-02T08:53:00;23.03;41.76
70300;HTU21D;57704;51.112;5.878;2022-11-02T08:55:26;22.95;41.01
70300;HTU21D;57704;51.112;5.878;2022-11-02T08:57:54;22.92;42.14
70300;HTU21D;57704;51.112;5.878;2022-11-02T09:00:24;23.20;40.52
70300;HTU21D;57704;51.112;5.878;2022-11-02T09:03:16;23.07;41.45
70300;HTU21D;57704;51.112;5.878;2022-11-02T09:05:45;23.09;39.49
70300;HTU21D;57704;51.112;5.878;2022-11-02T09:08:14;22.88;41.49
70300;HTU21D;57704;51.112;5.878;2022-11-02T09:10:42;22.83;41.08
70300;HTU21D;57704;51.112;5.878;2022-11-02T09:13:11;22.80;41.03
70300;HTU21D;57704;51.112;5.878;2022-11-02T09:15:38;22.69;40.70
70300;HTU21D;57704;51.112;5.878;2022-11-02T09:18:06;22.67;41.88
70300;HTU21D;57704;51.112;5.878;2022-11-02T09:20:33;22.64;42.12
70300;HTU21D;57704;51.112;5.878;2022-11-02T09:23:00;22.96;40.62
70300;HTU21D;57704;51.112;5.878;2022-11-02T09:25:26;22.87;41.42
70300;HTU21D;57704;51.112;5.878;2022-11-02T09:27:54;22.70;41.37
70300;HTU21D;57704;51.112;5.878;2022-11-02T09:30:21;22.66;41.76
70300;HTU21D;57704;51.112;5.878;2022-11-02T09:35:22;23.03;40.44
70300;HTU21D;57704;51.112;5.878;2022-11-02T09:37:51;23.25;40.37
70300;HTU21D;57704;51.112;5.878;2022-11-02T09:40:23;23.15;40.17
70300;HTU21D;57704;51.112;5.878;2022-11-02T09:46:15;22.40;41.26
70300;HTU21D;57704;51.112;5.878;2022-11-02T09:51:45;22.39;41.40
70300;HTU21D;57704;51.112;5.878;2022-11-02T09:54:43;22.27;40.98
70300;HTU21D;57704;51.112;5.878;2022-11-02T09:57:24;21.92;41.28
70300;HTU21D;57704;51.112;5.878;2022-11-02T09:59:51;21.15;42.07
70300;HTU21D;57704;51.112;5.878;2022-11-02T10:05:19;20.00;45.04
70300;HTU21D;57704;51.112;5.878;2022-11-02T10:10:37;19.21;46.70
70300;HTU21D;57704;51.112;5.878;2022-11-02T10:13:33;18.93;47.39
70300;HTU21D;57704;51.112;5.878;2022-11-02T10:16:25;18.81;47.88
70300;HTU21D;57704;51.112;5.878;2022-11-02T10:18:55;18.65;48.35
70300;HTU21D;57704;51.112;5.878;2022-11-02T10:21:30;18.76;48.08
70300;HTU21D;57704;51.112;5.878;2022-11-02T10:24:00;18.66;48.22
70300;HTU21D;57704;51.112;5.878;2022-11-02T10:26:33;18.53;48.63
70300;HTU21D;57704;51.112;5.878;2022-11-02T10:29:09;18.34;49.31
70300;HTU21D;57704;51.112;5.878;2022-11-02T10:31:37;18.10;49.73
70300;HTU21D;57704;51.112;5.878;2022-11-02T10:37:18;17.75;50.47
70300;HTU21D;57704;51.112;5.878;2022-11-02T10:40:25;17.61;51.41
70300;HTU21D;57704;51.112;5.878;2022-11-02T10:42:58;17.38;52.08
70300;HTU21D;57704;51.112;5.878;2022-11-02T10:51:13;17.22;52.35
70300;HTU21D;57704;51.112;5.878;2022-11-02T10:56:30;17.50;52.37
70300;HTU21D;57704;51.112;5.878;2022-11-02T10:59:11;17.58;52.17
70300;HTU21D;57704;51.112;5.878;2022-11-02T11:02:03;17.72;52.13
70300;HTU21D;57704;51.112;5.878;2022-11-02T11:04:34;17.88;52.02
70300;HTU21D;57704;51.112;5.878;2022-11-02T11:07:20;17.87;51.89
70300;HTU21D;57704;51.112;5.878;2022-11-02T11:09:50;17.82;51.78
70300;HTU21D;57704;51.112;5.878;2022-11-02T11:12:20;17.67;52.20
70300;HTU21D;57704;51.112;5.878;2022-11-02T11:14:56;17.75;52.33
70300;HTU21D;57704;51.112;5.878;2022-11-02T11:17:27;17.98;51.46
70300;HTU21D;57704;51.112;5.878;2022-11-02T11:19:56;18.06;51.69
70300;HTU21D;57704;51.112;5.878;2022-11-02T11:22:36;18.23;51.59
70300;HTU21D;57704;51.112;5.878;2022-11-02T11:27:45;18.89;50.50
70300;HTU21D;57704;51.112;5.878;2022-11-02T11:32:59;18.89;50.01
70300;HTU21D;57704;51.112;5.878;2022-11-02T11:35:36;19.15;49.76
70300;HTU21D;57704;51.112;5.878;2022-11-02T11:38:21;19.46;49.53
70300;HTU21D;57704;51.112;5.878;2022-11-02T11:40:53;19.70;48.94
70300;HTU21D;57704;51.112;5.878;2022-11-02T11:43:25;19.89;48.44
70300;HTU21D;57704;51.112;5.878;2022-11-02T11:46:12;19.82;48.44
70300;HTU21D;57704;51.112;5.878;2022-11-02T11:59:49;20.69;46.14
70300;HTU21D;57704;51.112;5.878;2022-11-02T12:02:30;21.08;45.83
70300;HTU21D;57704;51.112;5.878;2022-11-02T12:08:02;21.89;41.82
70300;HTU21D;57704;51.112;5.878;2022-11-02T12:16:24;22.68;42.26
70300;HTU21D;57704;51.112;5.878;2022-11-02T12:21:58;22.99;40.91
70300;HTU21D;57704;51.112;5.878;2022-11-02T12:38:21;22.75;40.88
70300;HTU21D;57704;51.112;5.878;2022-11-02T12:41:01;22.99;40.28
70300;HTU21D;57704;51.112;5.878;2022-11-02T12:46:42;22.99;39.88
70300;HTU21D;57704;51.112;5.878;2022-11-02T12:54:49;21.54;42.26
70300;HTU21D;57704;51.112;5.878;2022-11-02T12:57:18;21.37;42.28
70300;HTU21D;57704;51.112;5.878;2022-11-02T12:59:51;21.04;42.84
70300;HTU21D;57704;51.112;5.878;2022-11-02T13:05:24;21.02;42.63
70300;HTU21D;57704;51.112;5.878;2022-11-02T13:10:39;21.59;41.92
70300;HTU21D;57704;51.112;5.878;2022-11-02T13:13:14;21.78;41.00
70300;HTU21D;57704;51.112;5.878;2022-11-02T13:15:44;21.70;40.18
70300;HTU21D;57704;51.112;5.878;2022-11-02T13:18:20;21.54;41.36
70300;HTU21D;57704;51.112;5.878;2022-11-02T13:20:56;21.46;41.59
70300;HTU21D;57704;51.112;5.878;2022-11-02T13:23:39;21.42;41.48
70300;HTU21D;57704;51.112;5.878;2022-11-02T13:28:50;21.15;41.80
70300;HTU21D;57704;51.112;5.878;2022-11-02T13:31:45;20.77;41.85
70300;HTU21D;57704;51.112;5.878;2022-11-02T13:34:21;20.56;42.22
70300;HTU21D;57704;51.112;5.878;2022-11-02T13:36:52;20.44;42.72
70300;HTU21D;57704;51.112;5.878;2022-11-02T13:39:37;20.32;42.80
70300;HTU21D;57704;51.112;5.878;2022-11-02T13:42:16;20.17;43.26
70300;HTU21D;57704;51.112;5.878;2022-11-02T13:50:43;19.94;44.28
70300;HTU21D;57704;51.112;5.878;2022-11-02T13:53:27;19.86;44.61
70300;HTU21D;57704;51.112;5.878;2022-11-02T13:55:59;19.86;44.88
70300;HTU21D;57704;51.112;5.878;2022-11-02T13:58:26;19.82;44.71
70300;HTU21D;57704;51.112;5.878;2022-11-02T14:01:08;19.57;45.10
70300;HTU21D;57704;51.112;5.878;2022-11-02T14:06:16;19.12;46.03
70300;HTU21D;57704;51.112;5.878;2022-11-02T14:09:04;19.16;46.06
70300;HTU21D;57704;51.112;5.878;2022-11-02T14:11:33;19.06;46.21
70300;HTU21D;57704;51.112;5.878;2022-11-02T14:16:55;18.93;46.60
70300;HTU21D;57704;51.112;5.878;2022-11-02T14:19:31;18.80;46.82
70300;HTU21D;57704;51.112;5.878;2022-11-02T14:22:15;18.67;47.24
70300;HTU21D;57704;51.112;5.878;2022-11-02T14:35:21;18.20;47.52
70300;HTU21D;57704;51.112;5.878;2022-11-02T14:48:51;17.64;48.08
70300;HTU21D;57704;51.112;5.878;2022-11-02T14:51:25;17.56;48.02
70300;HTU21D;57704;51.112;5.878;2022-11-02T14:54:02;17.47;48.12
70300;HTU21D;57704;51.112;5.878;2022-11-02T14:56:50;17.43;48.18
70300;HTU21D;57704;51.112;5.878;2022-11-02T14:59:26;17.32;48.37
70300;HTU21D;57704;51.112;5.878;2022-11-02T15:02:01;17.25;48.49
70300;HTU21D;57704;51.112;5.878;2022-11-02T15:04:31;17.17;48.66
70300;HTU21D;57704;51.112;5.878;2022-11-02T15:07:02;17.09;48.92
70300;HTU21D;57704;51.112;5.878;2022-11-02T15:12:36;17.06;49.15
70300;HTU21D;57704;51.112;5.878;2022-11-02T15:20:37;16.98;49.34
70300;HTU21D;57704;51.112;5.878;2022-11-02T15:23:02;16.98;49.44
70300;HTU21D;57704;51.112;5.878;2022-11-02T15:25:35;16.94;49.53
70300;HTU21D;57704;51.112;5.878;2022-11-02T15:28:12;16.93;49.56
70300;HTU21D;57704;51.112;5.878;2022-11-02T15:30:47;16.89;49.68
70300;HTU21D;57704;51.112;5.878;2022-11-02T15:33:28;16.86;49.72
70300;HTU21D;57704;51.112;5.878;2022-11-02T15:35:59;16.80;49.84
70300;HTU21D;57704;51.112;5.878;2022-11-02T15:38:27;16.78;49.94
70300;HTU21D;57704;51.112;5.878;2022-11-02T15:44:25;16.78;50.11
70300;HTU21D;57704;51.112;5.878;2022-11-02T15:47:13;16.72;50.11
70300;HTU21D;57704;51.112;5.878;2022-11-02T15:58:36;16.30;50.66
70300;HTU21D;57704;51.112;5.878;2022-11-02T16:01:21;16.21;50.76
70300;HTU21D;57704;51.112;5.878;2022-11-02T16:03:53;16.15;50.81
70300;HTU21D;57704;51.112;5.878;2022-11-02T16:06:29;16.07;50.86
70300;HTU21D;57704;51.112;5.878;2022-11-02T16:08:59;16.00;50.98
70300;HTU21D;57704;51.112;5.878;2022-11-02T16:11:25;15.95;50.82
70300;HTU21D;57704;51.112;5.878;2022-11-02T16:13:52;15.83;51.07
70300;HTU21D;57704;51.112;5.878;2022-11-02T16:16:19;15.76;51.12
70300;HTU21D;57704;51.112;5.878;2022-11-02T16:18:51;15.70;51.19
70300;HTU21D;57704;51.112;5.878;2022-11-02T16:21:19;15.65;51.01
70300;HTU21D;57704;51.112;5.878;2022-11-02T16:23:49;15.59;51.17
70300;HTU21D;57704;51.112;5.878;2022-11-02T16:26:22;15.55;51.17
70300;HTU21D;57704;51.112;5.878;2022-11-02T16:28:55;15.52;51.17
70300;HTU21D;57704;51.112;5.878;2022-11-02T16:31:29;15.49;51.20
70300;HTU21D;57704;51.112;5.878;2022-11-02T16:34:20;15.42;51.27
70300;HTU21D;57704;51.112;5.878;2022-11-02T16:36:46;15.36;51.32
70300;HTU21D;57704;51.112;5.878;2022-11-02T16:39:17;15.33;51.24
70300;HTU21D;57704;51.112;5.878;2022-11-02T16:41:48;15.26;51.43
70300;HTU21D;57704;51.112;5.878;2022-11-02T16:44:26;15.24;51.50
70300;HTU21D;57704;51.112;5.878;2022-11-02T16:46:59;15.21;51.53
70300;HTU21D;57704;51.112;5.878;2022-11-02T16:49:27;15.18;51.53
70300;HTU21D;57704;51.112;5.878;2022-11-02T16:51:56;15.15;51.60
70300;HTU21D;57704;51.112;5.878;2022-11-02T16:54:41;15.13;51.69
70300;HTU21D;57704;51.112;5.878;2022-11-02T16:59:58;15.04;51.87
70300;HTU21D;57704;51.112;5.878;2022-11-02T17:02:35;15.03;51.95
70300;HTU21D;57704;51.112;5.878;2022-11-02T17:05:02;15.04;52.01
70300;HTU21D;57704;51.112;5.878;2022-11-02T17:07:40;14.97;52.10
70300;HTU21D;57704;51.112;5.878;2022-11-02T17:10:07;14.93;52.15
70300;HTU21D;57704;51.112;5.878;2022-11-02T17:12:43;14.88;52.29
70300;HTU21D;57704;51.112;5.878;2022-11-02T17:15:18;14.84;52.45
70300;HTU21D;57704;51.112;5.878;2022-11-02T17:17:45;14.75;52.63
70300;HTU21D;57704;51.112;5.878;2022-11-02T17:23:04;14.62;53.00
70300;HTU21D;57704;51.112;5.878;2022-11-02T17:25:33;14.53;53.34
70300;HTU21D;57704;51.112;5.878;2022-11-02T17:28:02;14.45;53.52
70300;HTU21D;57704;51.112;5.878;2022-11-02T17:32:59;14.38;53.91
70300;HTU21D;57704;51.112;5.878;2022-11-02T17:35:25;14.33;54.13
70300;HTU21D;57704;51.112;5.878;2022-11-02T17:37:51;14.29;54.28
70300;HTU21D;57704;51.112;5.878;2022-11-02T17:40:18;14.24;54.46
70300;HTU21D;57704;51.112;5.878;2022-11-02T17:42:45;14.19;54.74
70300;HTU21D;57704;51.112;5.878;2022-11-02T17:45:32;14.14;54.81
70300;HTU21D;57704;51.112;5.878;2022-11-02T17:48:00;14.13;54.94
70300;HTU21D;57704;51.112;5.878;2022-11-02T17:50:29;14.08;55.03
70300;HTU21D;57704;51.112;5.878;2022-11-02T17:52:57;14.08;55.16
70300;HTU21D;57704;51.112;5.878;2022-11-02T17:55:28;14.05;55.22
70300;HTU21D;57704;51.112;5.878;2022-11-02T17:57:55;14.05;55.26
70300;HTU21D;57704;51.112;5.878;2022-11-02T18:00:23;13.93;55.49
70300;HTU21D;57704;51.112;5.878;2022-11-02T18:02:57;13.91;55.57
70300;HTU21D;57704;51.112;5.878;2022-11-02T18:05:30;13.86;55.79
70300;HTU21D;57704;51.112;5.878;2022-11-02T18:07:57;13.80;55.90
70300;HTU21D;57704;51.112;5.878;2022-11-02T18:10:28;13.76;56.08
70300;HTU21D;57704;51.112;5.878;2022-11-02T18:12:55;13.69;56.20
70300;HTU21D;57704;51.112;5.878;2022-11-02T18:15:24;13.70;56.30
70300;HTU21D;57704;51.112;5.878;2022-11-02T18:17:51;13.67;56.37
70300;HTU21D;57704;51.112;5.878;2022-11-02T18:20:17;13.64;56.53
70300;HTU21D;57704;51.112;5.878;2022-11-02T18:22:44;13.60;56.59
70300;HTU21D;57704;51.112;5.878;2022-11-02T18:25:13;13.56;56.73
70300;HTU21D;57704;51.112;5.878;2022-11-02T18:27:40;13.55;56.84
70300;HTU21D;57704;51.112;5.878;2022-11-02T18:30:08;13.49;56.98
70300;HTU21D;57704;51.112;5.878;2022-11-02T18:32:39;13.49;57.13
70300;HTU21D;57704;51.112;5.878;2022-11-02T18:35:08;13.44;57.35
70300;HTU21D;57704;51.112;5.878;2022-11-02T18:37:35;13.45;57.45
70300;HTU21D;57704;51.112;5.878;2022-11-02T18:40:03;13.43;57.50
70300;HTU21D;57704;51.112;5.878;2022-11-02T18:42:30;13.41;57.56
70300;HTU21D;57704;51.112;5.878;2022-11-02T18:44:56;13.43;57.63